sensor_id;sensor_type;location;lat;lon;timestamp;pressure;altitude;pressure_sealevel;temperature;humidity
46412;BME280;32113;42.012;24.870;2023-05-02T00:02:20;99474.81;;;13.73;57.20
46412;BME280;32113;42.012;24.870;2023-05-02T00:04:45;99462.81;;;13.71;57.66
46412;BME280;32113;42.012;24.870;2023-05-02T00:07:11;99471.31;;;13.77;57.42
46412;BME280;32113;42.012;24.870;2023-05-02T00:09:36;99473.84;;;13.81;57.05
46412;BME280;32113;42.012;24.870;2023-05-02T00:12:02;99475.34;;;13.92;56.59
46412;BME280;32113;42.012;24.870;2023-05-02T00:14:27;99463.19;;;13.99;56.34
46412;BME280;32113;42.012;24.870;2023-05-02T00:16:52;99473.53;;;13.98;56.40
46412;BME280;32113;42.012;24.870;2023-05-02T00:19:18;99480.41;;;13.97;56.55
46412;BME280;32113;42.012;24.870;2023-05-02T00:21:45;99470.19;;;13.92;56.44
46412;BME280;32113;42.012;24.870;2023-05-02T00:24:11;99471.13;;;13.88;56.94
46412;BME280;32113;42.012;24.870;2023-05-02T00:26:36;99471.94;;;13.90;56.33
46412;BME280;32113;42.012;24.870;2023-05-02T00:29:01;99474.59;;;13.87;56.12
46412;BME280;32113;42.012;24.870;2023-05-02T00:31:27;99477.84;;;13.96;56.56
46412;BME280;32113;42.012;24.870;2023-05-02T00:33:52;99483.13;;;13.91;55.80
46412;BME280;32113;42.012;24.870;2023-05-02T00:36:18;99481.34;;;13.93;56.14
46412;BME280;32113;42.012;24.870;2023-05-02T00:38:43;99491.66;;;13.93;55.77
46412;BME280;32113;42.012;24.870;2023-05-02T00:41:09;99487.19;;;14.04;55.61
46412;BME280;32113;42.012;24.870;2023-05-02T00:43:34;99492.38;;;14.03;55.77
46412;BME280;32113;42.012;24.870;2023-05-02T00:46:00;99488.09;;;14.02;55.54
46412;BME280;32113;42.012;24.870;2023-05-02T00:48:25;99495.84;;;14.02;55.63
46412;BME280;32113;42.012;24.870;2023-05-02T00:50:51;99495.06;;;13.97;56.10
46412;BME280;32113;42.012;24.870;2023-05-02T00:53:16;99499.63;;;13.81;56.32
46412;BME280;32113;42.012;24.870;2023-05-02T00:55:42;99499.72;;;13.74;56.13
46412;BME280;32113;42.012;24.870;2023-05-02T00:58:09;99502.97;;;13.87;56.46
46412;BME280;32113;42.012;24.870;2023-05-02T01:00:40;99497.88;;;13.81;56.00
46412;BME280;32113;42.012;24.870;2023-05-02T01:03:31;99506.66;;;13.71;56.23
46412;BME280;32113;42.012;24.870;2023-05-02T01:06:01;99499.66;;;13.77;55.96
46412;BME280;32113;42.012;24.870;2023-05-02T07:08:15;99632.13;;;17.70;48.40
46412;BME280;32113;42.012;24.870;2023-05-02T07:10:42;99628.28;;;17.83;48.22
46412;BME280;32113;42.012;24.870;2023-05-02T07:13:07;99629.97;;;17.84;48.16
46412;BME280;32113;42.012;24.870;2023-05-02T07:15:33;99626.13;;;17.96;47.45
46412;BME280;32113;42.012;24.870;2023-05-02T07:17:58;99625.78;;;18.09;46.69
46412;BME280;32113;42.012;24.870;2023-05-02T07:20:23;99617.53;;;18.23;45.56
46412;BME280;32113;42.012;24.870;2023-05-02T07:22:49;99624.66;;;18.16;44.41
46412;BME280;32113;42.012;24.870;2023-05-02T07:25:14;99625.31;;;18.23;44.19
46412;BME280;32113;42.012;24.870;2023-05-02T07:27:39;99623.38;;;18.30;44.47
46412;BME280;32113;42.012;24.870;2023-05-02T07:30:05;99628.09;;;18.44;44.33
46412;BME280;32113;42.012;24.870;2023-05-02T07:32:31;99619.72;;;18.61;42.85
46412;BME280;32113;42.012;24.870;2023-05-02T07:34:56;99615.59;;;18.81;42.28
46412;BME280;32113;42.012;24.870;2023-05-02T07:37:21;99610.50;;;19.01;42.08
46412;BME280;32113;42.012;24.870;2023-05-02T07:39:47;99609.69;;;19.25;41.23
46412;BME280;32113;42.012;24.870;2023-05-02T07:42:12;99615.09;;;19.42;41.02
46412;BME280;32113;42.012;24.870;2023-05-02T07:44:37;99608.09;;;19.67;40.38
46412;BME280;32113;42.012;24.870;2023-05-02T07:47:03;99607.31;;;19.87;39.42
46412;BME280;32113;42.012;24.870;2023-05-02T07:49:28;99611.84;;;20.04;40.06
46412;BME280;32113;42.012;24.870;2023-05-02T07:51:53;99609.09;;;20.30;39.86
46412;BME280;32113;42.012;24.870;2023-05-02T07:54:19;99612.66;;;20.48;39.26
46412;BME280;32113;42.012;24.870;2023-05-02T07:56:45;99604.91;;;20.67;38.64
46412;BME280;32113;42.012;24.870;2023-05-02T07:59:11;99603.66;;;20.97;38.16
46412;BME280;32113;42.012;24.870;2023-05-02T08:01:36;99601.22;;;21.13;37.78
46412;BME280;32113;42.012;24.870;2023-05-02T08:04:02;99593.38;;;21.32;37.26
46412;BME280;32113;42.012;24.870;2023-05-02T08:06:28;99597.22;;;21.43;37.79
46412;BME280;32113;42.012;24.870;2023-05-02T08:08:53;99590.31;;;21.61;36.92
46412;BME280;32113;42.012;24.870;2023-05-02T08:11:19;99585.00;;;21.82;37.26
46412;BME280;32113;42.012;24.870;2023-05-02T08:13:46;99579.66;;;22.02;36.68
46412;BME280;32113;42.012;24.870;2023-05-02T08:16:11;99583.78;;;22.24;35.05
46412;BME280;32113;42.012;24.870;2023-05-02T08:18:36;99575.84;;;22.43;35.12
46412;BME280;32113;42.012;24.870;2023-05-02T08:21:02;99576.63;;;22.63;34.10
46412;BME280;32113;42.012;24.870;2023-05-02T08:23:27;99572.28;;;22.80;33.57
46412;BME280;32113;42.012;24.870;2023-05-02T08:25:52;99561.66;;;22.99;33.01
46412;BME280;32113;42.012;24.870;2023-05-02T08:28:18;99562.41;;;23.17;31.27
46412;BME280;32113;42.012;24.870;2023-05-02T08:30:43;99551.78;;;23.20;30.44
46412;BME280;32113;42.012;24.870;2023-05-02T08:33:09;99553.81;;;23.31;29.43
46412;BME280;32113;42.012;24.870;2023-05-02T08:35:34;99554.56;;;23.49;29.33
46412;BME280;32113;42.012;24.870;2023-05-02T08:38:00;99552.56;;;23.39;28.70
46412;BME280;32113;42.012;24.870;2023-05-02T08:40:25;99551.97;;;23.49;28.12
46412;BME280;32113;42.012;24.870;2023-05-02T08:42:51;99544.53;;;23.58;27.20
46412;BME280;32113;42.012;24.870;2023-05-02T08:45:16;99542.59;;;23.76;28.28
46412;BME280;32113;42.012;24.870;2023-05-02T08:47:42;99539.25;;;23.74;25.86
46412;BME280;32113;42.012;24.870;2023-05-02T08:50:09;99538.63;;;23.85;25.88
46412;BME280;32113;42.012;24.870;2023-05-02T08:52:35;99539.28;;;23.88;23.87
46412;BME280;32113;42.012;24.870;2023-05-02T08:55:01;99534.34;;;23.84;24.70
46412;BME280;32113;42.012;24.870;2023-05-02T08:57:30;99530.72;;;24.01;24.29
46412;BME280;32113;42.012;24.870;2023-05-02T08:59:56;99531.16;;;24.24;24.05
46412;BME280;32113;42.012;24.870;2023-05-02T09:05:06;99528.34;;;24.27;22.85
46412;BME280;32113;42.012;24.870;2023-05-02T09:07:44;99513.84;;;24.36;21.36
46412;BME280;32113;42.012;24.870;2023-05-02T09:10:10;99514.97;;;24.46;21.12
46412;BME280;32113;42.012;24.870;2023-05-02T09:12:36;99510.09;;;24.54;21.04
46412;BME280;32113;42.012;24.870;2023-05-02T09:17:39;99508.84;;;24.60;21.25
46412;BME280;32113;42.012;24.870;2023-05-02T09:20:05;99504.16;;;24.65;20.94
46412;BME280;32113;42.012;24.870;2023-05-02T09:22:31;99496.31;;;24.95;21.00
46412;BME280;32113;42.012;24.870;2023-05-02T09:24:56;99498.63;;;24.99;20.38
46412;BME280;32113;42.012;24.870;2023-05-02T09:27:21;99483.72;;;25.00;20.78
46412;BME280;32113;42.012;24.870;2023-05-02T09:29:47;99482.59;;;25.04;20.59
46412;BME280;32113;42.012;24.870;2023-05-02T09:32:12;99484.72;;;25.12;20.41
46412;BME280;32113;42.012;24.870;2023-05-02T09:34:37;99484.56;;;25.00;19.74
46412;BME280;32113;42.012;24.870;2023-05-02T09:37:03;99484.94;;;25.22;19.92
46412;BME280;32113;42.012;24.870;2023-05-02T09:39:29;99480.94;;;25.43;20.51
46412;BME280;32113;42.012;24.870;2023-05-02T09:41:55;99473.31;;;25.53;20.30
46412;BME280;32113;42.012;24.870;2023-05-02T09:44:21;99470.47;;;25.56;20.43
46412;BME280;32113;42.012;24.870;2023-05-02T09:46:48;99469.66;;;25.56;20.69
46412;BME280;32113;42.012;24.870;2023-05-02T09:49:14;99465.56;;;25.78;20.85
46412;BME280;32113;42.012;24.870;2023-05-02T09:51:42;99466.22;;;25.94;20.35
46412;BME280;32113;42.012;24.870;2023-05-02T09:54:08;99464.94;;;25.87;19.35
46412;BME280;32113;42.012;24.870;2023-05-02T09:56:50;99459.06;;;25.83;19.65
46412;BME280;32113;42.012;24.870;2023-05-02T09:59:16;99453.38;;;25.77;20.54
46412;BME280;32113;42.012;24.870;2023-05-02T10:01:41;99441.50;;;25.71;21.05
46412;BME280;32113;42.012;24.870;2023-05-02T10:04:13;99451.47;;;25.79;21.61
46412;BME280;32113;42.012;24.870;2023-05-02T10:06:43;99445.59;;;25.75;21.21
46412;BME280;32113;42.012;24.870;2023-05-02T10:09:09;99450.75;;;25.77;21.62
46412;BME280;32113;42.012;24.870;2023-05-02T10:11:34;99446.56;;;25.87;21.91
46412;BME280;32113;42.012;24.870;2023-05-02T10:14:01;99440.78;;;26.08;21.91
46412;BME280;32113;42.012;24.870;2023-05-02T10:16:26;99435.94;;;26.02;21.02
46412;BME280;32113;42.012;24.870;2023-05-02T10:19:02;99433.94;;;26.05;20.61
46412;BME280;32113;42.012;24.870;2023-05-02T10:21:31;99431.53;;;26.02;20.68
46412;BME280;32113;42.012;24.870;2023-05-02T10:23:58;99436.13;;;25.85;20.59
46412;BME280;32113;42.012;24.870;2023-05-02T10:26:25;99431.41;;;25.91;21.08
46412;BME280;32113;42.012;24.870;2023-05-02T10:28:51;99420.50;;;25.97;21.23
46412;BME280;32113;42.012;24.870;2023-05-02T10:31:17;99425.31;;;26.03;21.27
46412;BME280;32113;42.012;24.870;2023-05-02T10:33:43;99427.44;;;25.85;20.49
46412;BME280;32113;42.012;24.870;2023-05-02T10:36:09;99425.34;;;25.77;20.09
46412;BME280;32113;42.012;24.870;2023-05-02T10:38:37;99424.69;;;25.61;20.56
46412;BME280;32113;42.012;24.870;2023-05-02T10:41:04;99427.47;;;25.44;20.89
46412;BME280;32113;42.012;24.870;2023-05-02T10:43:32;99414.41;;;25.43;20.69
46412;BME280;32113;42.012;24.870;2023-05-02T10:45:58;99412.75;;;25.55;21.09
46412;BME280;32113;42.012;24.870;2023-05-02T10:48:24;99412.47;;;25.47;20.54
46412;BME280;32113;42.012;24.870;2023-05-02T10:50:57;99411.69;;;25.44;20.98
46412;BME280;32113;42.012;24.870;2023-05-02T10:58:33;99418.50;;;25.75;20.97
46412;BME280;32113;42.012;24.870;2023-05-02T11:03:52;99411.53;;;25.20;21.46
46412;BME280;32113;42.012;24.870;2023-05-02T11:06:18;99404.16;;;25.53;21.61
46412;BME280;32113;42.012;24.870;2023-05-02T11:08:43;99401.03;;;25.61;20.94
46412;BME280;32113;42.012;24.870;2023-05-02T11:13:52;99398.31;;;25.75;21.53
46412;BME280;32113;42.012;24.870;2023-05-02T11:16:18;99394.38;;;25.55;20.73
46412;BME280;32113;42.012;24.870;2023-05-02T11:18:58;99399.25;;;25.21;20.87
46412;BME280;32113;42.012;24.870;2023-05-02T11:21:27;99389.19;;;25.14;20.96
46412;BME280;32113;42.012;24.870;2023-05-02T11:24:34;99394.09;;;25.19;21.36
46412;BME280;32113;42.012;24.870;2023-05-02T11:26:38;99398.91;;;25.12;21.61
46412;BME280;32113;42.012;24.870;2023-05-02T11:29:03;99399.78;;;25.26;21.94
46412;BME280;32113;42.012;24.870;2023-05-02T11:33:55;99383.75;;;25.43;21.70
46412;BME280;32113;42.012;24.870;2023-05-02T11:36:27;99386.06;;;25.35;21.01
46412;BME280;32113;42.012;24.870;2023-05-02T11:38:53;99378.94;;;25.37;21.50
46412;BME280;32113;42.012;24.870;2023-05-02T11:41:18;99385.19;;;25.22;20.89
46412;BME280;32113;42.012;24.870;2023-05-02T11:43:44;99370.38;;;25.21;20.94
46412;BME280;32113;42.012;24.870;2023-05-02T11:46:10;99375.78;;;25.32;20.73
46412;BME280;32113;42.012;24.870;2023-05-02T11:48:35;99383.09;;;25.27;21.08
46412;BME280;32113;42.012;24.870;2023-05-02T11:51:01;99365.66;;;25.13;20.93
46412;BME280;32113;42.012;24.870;2023-05-02T11:53:27;99361.97;;;25.15;20.83
46412;BME280;32113;42.012;24.870;2023-05-02T11:56:03;99368.56;;;25.08;21.38
46412;BME280;32113;42.012;24.870;2023-05-02T11:58:29;99350.75;;;25.13;21.75
46412;BME280;32113;42.012;24.870;2023-05-02T12:00:56;99345.63;;;25.25;21.26
46412;BME280;32113;42.012;24.870;2023-05-02T12:03:31;99349.28;;;25.35;21.26
46412;BME280;32113;42.012;24.870;2023-05-02T12:06:08;99340.03;;;25.29;20.93
46412;BME280;32113;42.012;24.870;2023-05-02T12:08:35;99328.81;;;25.14;21.36
46412;BME280;32113;42.012;24.870;2023-05-02T12:11:00;99332.25;;;25.15;21.64
46412;BME280;32113;42.012;24.870;2023-05-02T12:13:26;99333.00;;;25.04;21.44
46412;BME280;32113;42.012;24.870;2023-05-02T12:15:52;99329.50;;;24.90;21.89
46412;BME280;32113;42.012;24.870;2023-05-02T12:18:18;99322.69;;;24.73;21.56
46412;BME280;32113;42.012;24.870;2023-05-02T12:20:43;99325.81;;;24.65;21.95
46412;BME280;32113;42.012;24.870;2023-05-02T12:23:09;99318.59;;;24.69;21.35
46412;BME280;32113;42.012;24.870;2023-05-02T12:25:38;99326.44;;;24.84;21.96
46412;BME280;32113;42.012;24.870;2023-05-02T12:28:03;99323.94;;;24.95;21.84
46412;BME280;32113;42.012;24.870;2023-05-02T12:30:29;99317.75;;;24.69;21.65
46412;BME280;32113;42.012;24.870;2023-05-02T12:32:55;99315.88;;;24.71;21.40
46412;BME280;32113;42.012;24.870;2023-05-02T12:35:21;99303.59;;;24.71;21.41
46412;BME280;32113;42.012;24.870;2023-05-02T12:37:47;99304.28;;;24.60;21.54
46412;BME280;32113;42.012;24.870;2023-05-02T12:40:15;99293.50;;;24.65;21.78
46412;BME280;32113;42.012;24.870;2023-05-02T12:42:41;99288.53;;;24.60;21.44
46412;BME280;32113;42.012;24.870;2023-05-02T12:45:16;99285.66;;;24.78;21.70
46412;BME280;32113;42.012;24.870;2023-05-02T12:47:44;99270.34;;;24.72;21.48
46412;BME280;32113;42.012;24.870;2023-05-02T12:50:13;99271.97;;;24.87;21.71
46412;BME280;32113;42.012;24.870;2023-05-02T12:52:49;99270.81;;;24.91;21.35
46412;BME280;32113;42.012;24.870;2023-05-02T12:55:22;99262.50;;;24.85;21.91
46412;BME280;32113;42.012;24.870;2023-05-02T12:57:48;99264.38;;;24.83;21.57
46412;BME280;32113;42.012;24.870;2023-05-02T13:00:17;99262.94;;;24.91;20.98
46412;BME280;32113;42.012;24.870;2023-05-02T13:02:42;99260.94;;;24.95;21.65
46412;BME280;32113;42.012;24.870;2023-05-02T13:05:18;99262.41;;;24.86;20.70
46412;BME280;32113;42.012;24.870;2023-05-02T13:07:44;99252.75;;;24.87;20.99
46412;BME280;32113;42.012;24.870;2023-05-02T13:10:09;99249.78;;;24.78;20.81
46412;BME280;32113;42.012;24.870;2023-05-02T13:12:37;99256.41;;;24.84;20.77
46412;BME280;32113;42.012;24.870;2023-05-02T13:15:03;99240.19;;;24.64;20.71
46412;BME280;32113;42.012;24.870;2023-05-02T13:17:29;99247.44;;;24.61;21.18
46412;BME280;32113;42.012;24.870;2023-05-02T13:19:54;99243.97;;;24.60;21.18
46412;BME280;32113;42.012;24.870;2023-05-02T13:22:20;99252.16;;;24.69;21.22
46412;BME280;32113;42.012;24.870;2023-05-02T13:24:45;99242.00;;;24.77;21.57
46412;BME280;32113;42.012;24.870;2023-05-02T13:27:11;99245.91;;;24.84;21.39
46412;BME280;32113;42.012;24.870;2023-05-02T13:29:36;99248.84;;;24.79;21.52
46412;BME280;32113;42.012;24.870;2023-05-02T13:32:01;99247.78;;;24.82;21.18
46412;BME280;32113;42.012;24.870;2023-05-02T13:34:27;99253.31;;;24.92;21.70
46412;BME280;32113;42.012;24.870;2023-05-02T13:36:52;99249.06;;;24.89;21.47
46412;BME280;32113;42.012;24.870;2023-05-02T13:39:17;99252.00;;;24.85;21.58
46412;BME280;32113;42.012;24.870;2023-05-02T13:41:42;99236.81;;;24.90;22.36
46412;BME280;32113;42.012;24.870;2023-05-02T13:44:08;99238.03;;;24.84;21.53
46412;BME280;32113;42.012;24.870;2023-05-02T13:46:33;99231.72;;;24.74;21.76
46412;BME280;32113;42.012;24.870;2023-05-02T13:49:02;99220.69;;;24.82;21.61
46412;BME280;32113;42.012;24.870;2023-05-02T13:51:28;99222.31;;;24.84;21.98
46412;BME280;32113;42.012;24.870;2023-05-02T13:53:55;99212.34;;;24.89;21.91
46412;BME280;32113;42.012;24.870;2023-05-02T13:56:20;99230.94;;;24.86;21.63
46412;BME280;32113;42.012;24.870;2023-05-02T13:58:46;99223.19;;;24.57;21.63
46412;BME280;32113;42.012;24.870;2023-05-02T14:01:11;99221.00;;;24.64;22.19
46412;BME280;32113;42.012;24.870;2023-05-02T14:03:36;99218.59;;;24.74;22.04
46412;BME280;32113;42.012;24.870;2023-05-02T14:06:01;99226.63;;;24.85;22.10
46412;BME280;32113;42.012;24.870;2023-05-02T14:08:27;99221.84;;;24.77;21.79
46412;BME280;32113;42.012;24.870;2023-05-02T14:10:52;99233.91;;;24.80;22.08
46412;BME280;32113;42.012;24.870;2023-05-02T14:13:17;99221.75;;;24.79;22.58
46412;BME280;32113;42.012;24.870;2023-05-02T14:15:42;99230.47;;;24.79;23.86
46412;BME280;32113;42.012;24.870;2023-05-02T14:18:08;99229.78;;;24.90;23.35
46412;BME280;32113;42.012;24.870;2023-05-02T14:20:34;99226.72;;;24.84;24.86
46412;BME280;32113;42.012;24.870;2023-05-02T14:22:59;99230.28;;;24.83;23.90
46412;BME280;32113;42.012;24.870;2023-05-02T14:25:24;99231.81;;;24.72;24.06
46412;BME280;32113;42.012;24.870;2023-05-02T14:27:50;99234.75;;;24.67;23.80
46412;BME280;32113;42.012;24.870;2023-05-02T14:30:15;99231.88;;;24.45;24.56
46412;BME280;32113;42.012;24.870;2023-05-02T14:32:40;99236.78;;;24.49;23.88
46412;BME280;32113;42.012;24.870;2023-05-02T14:35:06;99223.91;;;24.46;23.92
46412;BME280;32113;42.012;24.870;2023-05-02T14:37:31;99217.34;;;24.26;23.73
46412;BME280;32113;42.012;24.870;2023-05-02T14:39:56;99234.00;;;24.25;23.70
46412;BME280;32113;42.012;24.870;2023-05-02T14:42:23;99231.47;;;24.23;23.59
46412;BME280;32113;42.012;24.870;2023-05-02T14:44:48;99236.09;;;24.20;23.69
46412;BME280;32113;42.012;24.870;2023-05-02T14:47:13;99232.16;;;24.40;24.21
46412;BME280;32113;42.012;24.870;2023-05-02T14:49:38;99229.59;;;24.53;24.03
46412;BME280;32113;42.012;24.870;2023-05-02T14:52:04;99236.69;;;24.51;23.42
46412;BME280;32113;42.012;24.870;2023-05-02T14:54:29;99225.06;;;24.55;23.07
46412;BME280;32113;42.012;24.870;2023-05-02T14:56:55;99237.19;;;24.43;23.59
46412;BME280;32113;42.012;24.870;2023-05-02T14:59:20;99229.75;;;24.37;23.22
46412;BME280;32113;42.012;24.870;2023-05-02T15:01:46;99232.38;;;24.37;23.30
46412;BME280;32113;42.012;24.870;2023-05-02T15:04:11;99235.44;;;24.44;23.76
46412;BME280;32113;42.012;24.870;2023-05-02T15:06:36;99216.31;;;24.41;23.73
46412;BME280;32113;42.012;24.870;2023-05-02T15:09:02;99233.97;;;24.52;23.61
46412;BME280;32113;42.012;24.870;2023-05-02T15:11:27;99230.56;;;24.37;23.25
46412;BME280;32113;42.012;24.870;2023-05-02T15:13:52;99238.94;;;24.30;23.33
46412;BME280;32113;42.012;24.870;2023-05-02T15:16:18;99231.50;;;24.36;23.50
46412;BME280;32113;42.012;24.870;2023-05-02T15:18:43;99247.66;;;24.30;23.55
46412;BME280;32113;42.012;24.870;2023-05-02T15:21:09;99248.97;;;24.23;23.71
46412;BME280;32113;42.012;24.870;2023-05-02T15:23:35;99246.84;;;24.15;23.80
46412;BME280;32113;42.012;24.870;2023-05-02T15:26:00;99239.75;;;24.17;23.89
46412;BME280;32113;42.012;24.870;2023-05-02T15:28:25;99232.72;;;24.03;24.06
46412;BME280;32113;42.012;24.870;2023-05-02T15:30:51;99237.28;;;23.86;23.86
46412;BME280;32113;42.012;24.870;2023-05-02T15:33:16;99235.97;;;23.79;23.89
46412;BME280;32113;42.012;24.870;2023-05-02T15:35:50;99236.72;;;23.81;23.99
46412;BME280;32113;42.012;24.870;2023-05-02T15:38:16;99242.09;;;23.93;24.45
46412;BME280;32113;42.012;24.870;2023-05-02T15:40:41;99238.06;;;24.01;24.65
46412;BME280;32113;42.012;24.870;2023-05-02T15:43:06;99239.75;;;24.02;24.75
46412;BME280;32113;42.012;24.870;2023-05-02T15:45:31;99233.94;;;23.97;24.67
46412;BME280;32113;42.012;24.870;2023-05-02T15:47:58;99239.22;;;23.83;24.78
46412;BME280;32113;42.012;24.870;2023-05-02T15:50:23;99238.03;;;23.74;25.06
46412;BME280;32113;42.012;24.870;2023-05-02T15:52:48;99241.09;;;23.81;25.10
46412;BME280;32113;42.012;24.870;2023-05-02T15:55:13;99243.53;;;23.69;25.37
46412;BME280;32113;42.012;24.870;2023-05-02T15:57:39;99247.09;;;23.68;25.61
46412;BME280;32113;42.012;24.870;2023-05-02T16:00:04;99253.56;;;23.62;25.77
46412;BME280;32113;42.012;24.870;2023-05-02T16:02:30;99255.81;;;23.54;26.07
46412;BME280;32113;42.012;24.870;2023-05-02T16:04:55;99244.59;;;23.52;26.32
46412;BME280;32113;42.012;24.870;2023-05-02T16:07:21;99248.63;;;23.43;26.18
46412;BME280;32113;42.012;24.870;2023-05-02T16:09:46;99242.31;;;23.31;26.04
46412;BME280;32113;42.012;24.870;2023-05-02T16:12:11;99243.59;;;23.24;25.99
46412;BME280;32113;42.012;24.870;2023-05-02T16:14:37;99255.66;;;23.12;26.33
46412;BME280;32113;42.012;24.870;2023-05-02T16:17:02;99255.84;;;23.09;26.45
46412;BME280;32113;42.012;24.870;2023-05-02T16:19:28;99254.34;;;23.05;26.79
46412;BME280;32113;42.012;24.870;2023-05-02T16:21:53;99259.72;;;22.87;27.19
46412;BME280;32113;42.012;24.870;2023-05-02T16:24:18;99264.06;;;22.72;27.15
46412;BME280;32113;42.012;24.870;2023-05-02T16:26:44;99267.66;;;22.55;27.29
46412;BME280;32113;42.012;24.870;2023-05-02T16:29:10;99268.06;;;22.47;27.75
46412;BME280;32113;42.012;24.870;2023-05-02T16:31:35;99268.34;;;22.42;27.80
46412;BME280;32113;42.012;24.870;2023-05-02T16:34:01;99279.69;;;22.41;27.92
46412;BME280;32113;42.012;24.870;2023-05-02T16:36:27;99273.16;;;22.34;28.08
46412;BME280;32113;42.012;24.870;2023-05-02T16:38:53;99279.47;;;22.14;28.34
46412;BME280;32113;42.012;24.870;2023-05-02T16:41:18;99281.81;;;21.86;28.85
46412;BME280;32113;42.012;24.870;2023-05-02T16:43:43;99286.19;;;21.86;29.29
46412;BME280;32113;42.012;24.870;2023-05-02T16:46:08;99285.53;;;21.82;28.99
46412;BME280;32113;42.012;24.870;2023-05-02T16:48:34;99289.06;;;21.81;28.91
46412;BME280;32113;42.012;24.870;2023-05-02T16:50:59;99294.38;;;21.62;28.83
46412;BME280;32113;42.012;24.870;2023-05-02T16:53:25;99298.31;;;21.53;28.59
46412;BME280;32113;42.012;24.870;2023-05-02T16:55:50;99302.91;;;21.48;28.90
46412;BME280;32113;42.012;24.870;2023-05-02T16:58:16;99307.63;;;21.23;28.87
46412;BME280;32113;42.012;24.870;2023-05-02T17:00:41;99317.66;;;20.96;29.35
46412;BME280;32113;42.012;24.870;2023-05-02T17:03:06;99317.56;;;20.80;29.62
46412;BME280;32113;42.012;24.870;2023-05-02T17:05:32;99309.88;;;20.77;29.67
46412;BME280;32113;42.012;24.870;2023-05-02T17:07:57;99324.59;;;20.78;29.99
46412;BME280;32113;42.012;24.870;2023-05-02T17:10:23;99320.06;;;20.64;29.93
46412;BME280;32113;42.012;24.870;2023-05-02T17:12:48;99325.84;;;20.70;29.91
46412;BME280;32113;42.012;24.870;2023-05-02T17:15:14;99328.41;;;20.53;30.04
46412;BME280;32113;42.012;24.870;2023-05-02T17:17:39;99325.09;;;20.30;30.35
46412;BME280;32113;42.012;24.870;2023-05-02T17:20:04;99320.19;;;20.24;30.54
46412;BME280;32113;42.012;24.870;2023-05-02T17:22:31;99328.13;;;20.40;30.57
46412;BME280;32113;42.012;24.870;2023-05-02T17:24:56;99333.00;;;20.47;30.51
46412;BME280;32113;42.012;24.870;2023-05-02T17:27:22;99330.31;;;20.49;30.73
46412;BME280;32113;42.012;24.870;2023-05-02T17:29:47;99339.47;;;20.39;30.61
46412;BME280;32113;42.012;24.870;2023-05-02T17:32:12;99340.56;;;20.52;30.33
46412;BME280;32113;42.012;24.870;2023-05-02T17:34:39;99335.66;;;20.46;30.67
46412;BME280;32113;42.012;24.870;2023-05-02T17:37:06;99338.81;;;20.53;30.49
46412;BME280;32113;42.012;24.870;2023-05-02T17:39:31;99347.13;;;20.61;30.56
46412;BME280;32113;42.012;24.870;2023-05-02T17:41:57;99347.78;;;20.47;30.67
46412;BME280;32113;42.012;24.870;2023-05-02T17:44:22;99346.22;;;20.43;31.04
46412;BME280;32113;42.012;24.870;2023-05-02T17:46:47;99348.25;;;20.36;30.99
46412;BME280;32113;42.012;24.870;2023-05-02T17:49:13;99350.44;;;20.07;31.45
46412;BME280;32113;42.012;24.870;2023-05-02T17:51:38;99357.88;;;19.95;31.78
46412;BME280;32113;42.012;24.870;2023-05-02T17:54:03;99360.94;;;19.85;32.14
46412;BME280;32113;42.012;24.870;2023-05-02T17:56:29;99358.41;;;19.83;32.22
46412;BME280;32113;42.012;24.870;2023-05-02T17:58:54;99358.91;;;19.91;32.11
46412;BME280;32113;42.012;24.870;2023-05-02T18:01:20;99361.66;;;19.88;32.24
46412;BME280;32113;42.012;24.870;2023-05-02T18:03:45;99358.59;;;19.78;32.60
46412;BME280;32113;42.012;24.870;2023-05-02T18:06:15;99374.50;;;19.72;32.75
46412;BME280;32113;42.012;24.870;2023-05-02T18:08:40;99354.31;;;19.77;32.84
46412;BME280;32113;42.012;24.870;2023-05-02T18:11:11;99365.09;;;19.89;32.66
46412;BME280;32113;42.012;24.870;2023-05-02T18:13:37;99358.41;;;19.83;32.65
46412;BME280;32113;42.012;24.870;2023-05-02T18:16:03;99360.88;;;19.86;32.52
46412;BME280;32113;42.012;24.870;2023-05-02T18:18:29;99363.16;;;19.73;32.65
46412;BME280;32113;42.012;24.870;2023-05-02T18:20:54;99365.06;;;19.69;32.84
46412;BME280;32113;42.012;24.870;2023-05-02T18:23:19;99367.22;;;19.60;32.68
46412;BME280;32113;42.012;24.870;2023-05-02T18:25:45;99362.78;;;19.62;32.70
46412;BME280;32113;42.012;24.870;2023-05-02T18:28:10;99368.31;;;19.54;32.81
46412;BME280;32113;42.012;24.870;2023-05-02T18:30:37;99367.53;;;19.31;33.23
46412;BME280;32113;42.012;24.870;2023-05-02T18:33:03;99376.19;;;19.32;33.64
46412;BME280;32113;42.012;24.870;2023-05-02T18:35:28;99376.56;;;19.43;33.22
46412;BME280;32113;42.012;24.870;2023-05-02T18:37:54;99384.13;;;19.28;33.58
46412;BME280;32113;42.012;24.870;2023-05-02T18:40:20;99387.47;;;19.30;33.49
46412;BME280;32113;42.012;24.870;2023-05-02T18:42:46;99386.50;;;19.33;33.59
46412;BME280;32113;42.012;24.870;2023-05-02T18:45:11;99390.41;;;19.23;33.67
46412;BME280;32113;42.012;24.870;2023-05-02T18:47:36;99393.56;;;19.09;33.79
46412;BME280;32113;42.012;24.870;2023-05-02T18:50:02;99397.22;;;19.03;33.95
46412;BME280;32113;42.012;24.870;2023-05-02T18:52:28;99394.03;;;19.19;34.02
46412;BME280;32113;42.012;24.870;2023-05-02T18:54:54;99399.75;;;19.06;33.85
46412;BME280;32113;42.012;24.870;2023-05-02T18:57:20;99394.75;;;19.00;34.03
46412;BME280;32113;42.012;24.870;2023-05-02T18:59:45;99398.72;;;18.86;34.54
46412;BME280;32113;42.012;24.870;2023-05-02T19:02:11;99392.16;;;18.77;34.63
46412;BME280;32113;42.012;24.870;2023-05-02T19:04:36;99395.47;;;18.81;35.32